Noxen, Pennsylvania
Current Conditions -  °F | °C
As of 2:54 AM on Saturday 29 Nov 2014 (Local Time) from KAVP Reporting Station
Clear Clear  
Wind Chill:   Ceiling: Unl
Heat Index: 15°   Visibility: 10mi
Dew Point:   Wind: 6mph
Humidity: 77%   Direction: 180°S
Pressure: 30.25"   Gusts: NA
Location:  41.42°N, 76.06°W
Report Text: KAVP 290754Z 18005KT 10SM CLR M09/M13 A3025 RMK AO2 SLP254 T10941128
Loading
Personal Weather Stations






























Interactive Weather Map New forecast layout! Learn more

10-Day Weather Forecast

Advertisements
Track Severe Weather on mobile